sensor_id;sensor_type;location;lat;lon;timestamp;P1;durP1;ratioP1;P2;durP2;ratioP2
64903;SDS011;51401;48.882;12.598;2022-09-09T00:04:55;3.65;;;3.35;;
64903;SDS011;51401;48.882;12.598;2022-09-09T00:07:30;4.00;;;3.60;;
64903;SDS011;51401;48.882;12.598;2022-09-09T00:10:20;4.10;;;3.67;;
64903;SDS011;51401;48.882;12.598;2022-09-09T00:15:42;3.75;;;3.40;;
64903;SDS011;51401;48.882;12.598;2022-09-09T00:23:44;4.72;;;3.70;;
64903;SDS011;51401;48.882;12.598;2022-09-09T00:26:16;3.75;;;3.03;;
64903;SDS011;51401;48.882;12.598;2022-09-09T00:31:20;3.55;;;3.08;;
64903;SDS011;51401;48.882;12.598;2022-09-09T00:33:49;4.82;;;3.33;;
64903;SDS011;51401;48.882;12.598;2022-09-09T00:36:17;4.22;;;3.50;;
64903;SDS011;51401;48.882;12.598;2022-09-09T00:38:51;3.58;;;3.28;;
64903;SDS011;51401;48.882;12.598;2022-09-09T00:44:30;5.32;;;3.33;;
64903;SDS011;51401;48.882;12.598;2022-09-09T00:50:01;5.78;;;3.50;;
64903;SDS011;51401;48.882;12.598;2022-09-09T00:58:31;4.75;;;3.38;;
64903;SDS011;51401;48.882;12.598;2022-09-09T01:01:04;5.95;;;4.07;;
64903;SDS011;51401;48.882;12.598;2022-09-09T01:14:38;7.25;;;4.55;;
64903;SDS011;51401;48.882;12.598;2022-09-09T01:24:42;5.13;;;4.25;;
64903;SDS011;51401;48.882;12.598;2022-09-09T01:27:32;6.15;;;4.50;;
64903;SDS011;51401;48.882;12.598;2022-09-09T01:29:59;4.43;;;4.00;;
64903;SDS011;51401;48.882;12.598;2022-09-09T01:35:13;4.63;;;4.07;;
64903;SDS011;51401;48.882;12.598;2022-09-09T01:37:46;5.40;;;3.83;;
64903;SDS011;51401;48.882;12.598;2022-09-09T01:40:12;4.53;;;3.65;;
64903;SDS011;51401;48.882;12.598;2022-09-09T01:42:37;4.57;;;4.10;;
64903;SDS011;51401;48.882;12.598;2022-09-09T01:45:03;5.03;;;3.80;;
64903;SDS011;51401;48.882;12.598;2022-09-09T01:47:29;5.47;;;4.40;;
64903;SDS011;51401;48.882;12.598;2022-09-09T01:49:54;5.32;;;4.00;;
64903;SDS011;51401;48.882;12.598;2022-09-09T01:52:19;4.68;;;3.88;;
64903;SDS011;51401;48.882;12.598;2022-09-09T01:54:45;4.97;;;4.22;;
64903;SDS011;51401;48.882;12.598;2022-09-09T01:57:22;4.93;;;3.95;;
64903;SDS011;51401;48.882;12.598;2022-09-09T02:05:11;4.25;;;3.83;;
64903;SDS011;51401;48.882;12.598;2022-09-09T02:07:56;4.25;;;3.85;;
64903;SDS011;51401;48.882;12.598;2022-09-09T02:10:35;5.25;;;3.88;;
64903;SDS011;51401;48.882;12.598;2022-09-09T02:13:11;5.15;;;4.20;;
64903;SDS011;51401;48.882;12.598;2022-09-09T02:18:35;5.18;;;4.03;;
64903;SDS011;51401;48.882;12.598;2022-09-09T02:21:08;5.60;;;4.10;;
64903;SDS011;51401;48.882;12.598;2022-09-09T02:23:36;4.10;;;3.70;;
64903;SDS011;51401;48.882;12.598;2022-09-09T02:26:04;5.65;;;3.97;;
64903;SDS011;51401;48.882;12.598;2022-09-09T02:28:32;4.82;;;3.90;;
64903;SDS011;51401;48.882;12.598;2022-09-09T02:31:01;4.25;;;3.85;;
64903;SDS011;51401;48.882;12.598;2022-09-09T02:33:28;4.45;;;4.00;;
64903;SDS011;51401;48.882;12.598;2022-09-09T02:35:56;5.05;;;4.15;;
64903;SDS011;51401;48.882;12.598;2022-09-09T02:38:28;5.32;;;4.28;;
64903;SDS011;51401;48.882;12.598;2022-09-09T02:40:57;4.57;;;3.85;;
64903;SDS011;51401;48.882;12.598;2022-09-09T02:43:23;4.78;;;4.10;;
64903;SDS011;51401;48.882;12.598;2022-09-09T02:48:20;5.55;;;4.43;;
64903;SDS011;51401;48.882;12.598;2022-09-09T02:51:04;5.18;;;4.00;;
64903;SDS011;51401;48.882;12.598;2022-09-09T02:53:39;4.88;;;4.10;;
64903;SDS011;51401;48.882;12.598;2022-09-09T02:56:16;5.07;;;4.03;;
64903;SDS011;51401;48.882;12.598;2022-09-09T02:58:46;5.40;;;4.20;;
64903;SDS011;51401;48.882;12.598;2022-09-09T03:01:12;7.28;;;4.45;;
64903;SDS011;51401;48.882;12.598;2022-09-09T03:03:39;5.68;;;4.55;;
64903;SDS011;51401;48.882;12.598;2022-09-09T03:06:06;5.93;;;3.97;;
64903;SDS011;51401;48.882;12.598;2022-09-09T03:08:31;6.35;;;4.60;;
64903;SDS011;51401;48.882;12.598;2022-09-09T03:10:58;6.63;;;4.93;;
64903;SDS011;51401;48.882;12.598;2022-09-09T03:13:26;5.93;;;4.53;;
64903;SDS011;51401;48.882;12.598;2022-09-09T03:15:51;7.25;;;5.35;;
64903;SDS011;51401;48.882;12.598;2022-09-09T03:18:17;7.93;;;5.68;;
64903;SDS011;51401;48.882;12.598;2022-09-09T03:20:42;6.40;;;4.85;;
64903;SDS011;51401;48.882;12.598;2022-09-09T03:23:08;9.55;;;4.80;;
64903;SDS011;51401;48.882;12.598;2022-09-09T03:25:33;7.72;;;5.18;;
64903;SDS011;51401;48.882;12.598;2022-09-09T03:28:00;6.25;;;5.43;;
64903;SDS011;51401;48.882;12.598;2022-09-09T03:30:26;10.00;;;5.80;;
64903;SDS011;51401;48.882;12.598;2022-09-09T03:32:52;9.02;;;5.03;;
64903;SDS011;51401;48.882;12.598;2022-09-09T03:35:17;8.65;;;6.15;;
64903;SDS011;51401;48.882;12.598;2022-09-09T03:37:43;7.07;;;5.25;;
64903;SDS011;51401;48.882;12.598;2022-09-09T03:40:08;7.45;;;5.22;;
64903;SDS011;51401;48.882;12.598;2022-09-09T03:42:37;5.97;;;4.85;;
64903;SDS011;51401;48.882;12.598;2022-09-09T03:45:06;6.55;;;5.00;;
64903;SDS011;51401;48.882;12.598;2022-09-09T03:47:34;7.60;;;4.82;;
64903;SDS011;51401;48.882;12.598;2022-09-09T03:49:59;6.75;;;4.75;;
64903;SDS011;51401;48.882;12.598;2022-09-09T03:52:24;5.13;;;4.53;;
64903;SDS011;51401;48.882;12.598;2022-09-09T03:54:51;6.15;;;4.75;;
64903;SDS011;51401;48.882;12.598;2022-09-09T03:57:17;6.95;;;4.38;;
64903;SDS011;51401;48.882;12.598;2022-09-09T03:59:43;7.32;;;5.25;;
64903;SDS011;51401;48.882;12.598;2022-09-09T04:02:09;6.90;;;5.33;;
64903;SDS011;51401;48.882;12.598;2022-09-09T04:04:34;8.35;;;4.57;;
64903;SDS011;51401;48.882;12.598;2022-09-09T04:07:00;5.70;;;4.72;;
64903;SDS011;51401;48.882;12.598;2022-09-09T04:09:25;5.43;;;4.35;;
64903;SDS011;51401;48.882;12.598;2022-09-09T04:11:51;7.75;;;5.57;;
64903;SDS011;51401;48.882;12.598;2022-09-09T04:14:17;6.88;;;5.30;;
64903;SDS011;51401;48.882;12.598;2022-09-09T04:16:43;6.10;;;5.27;;
64903;SDS011;51401;48.882;12.598;2022-09-09T04:19:09;7.13;;;5.53;;
64903;SDS011;51401;48.882;12.598;2022-09-09T04:21:37;5.57;;;4.72;;
64903;SDS011;51401;48.882;12.598;2022-09-09T04:24:04;6.38;;;5.20;;
64903;SDS011;51401;48.882;12.598;2022-09-09T04:26:30;7.13;;;4.78;;
64903;SDS011;51401;48.882;12.598;2022-09-09T04:28:56;7.33;;;4.93;;
64903;SDS011;51401;48.882;12.598;2022-09-09T04:31:21;5.53;;;4.43;;
64903;SDS011;51401;48.882;12.598;2022-09-09T04:33:50;8.38;;;5.00;;
64903;SDS011;51401;48.882;12.598;2022-09-09T04:36:16;5.80;;;4.57;;
64903;SDS011;51401;48.882;12.598;2022-09-09T04:38:43;6.30;;;4.57;;
64903;SDS011;51401;48.882;12.598;2022-09-09T04:41:09;6.30;;;4.60;;
64903;SDS011;51401;48.882;12.598;2022-09-09T04:43:36;5.82;;;4.57;;
64903;SDS011;51401;48.882;12.598;2022-09-09T04:46:02;7.72;;;5.03;;
64903;SDS011;51401;48.882;12.598;2022-09-09T04:48:28;7.40;;;4.78;;
64903;SDS011;51401;48.882;12.598;2022-09-09T04:51:03;5.55;;;4.50;;
64903;SDS011;51401;48.882;12.598;2022-09-09T04:53:30;11.30;;;5.57;;
64903;SDS011;51401;48.882;12.598;2022-09-09T04:56:03;6.50;;;4.32;;
64903;SDS011;51401;48.882;12.598;2022-09-09T04:58:30;10.18;;;5.00;;
64903;SDS011;51401;48.882;12.598;2022-09-09T05:01:02;6.63;;;4.68;;
64903;SDS011;51401;48.882;12.598;2022-09-09T05:03:31;5.85;;;4.75;;
64903;SDS011;51401;48.882;12.598;2022-09-09T05:06:07;7.07;;;5.32;;
64903;SDS011;51401;48.882;12.598;2022-09-09T05:08:37;6.25;;;5.15;;
64903;SDS011;51401;48.882;12.598;2022-09-09T05:11:04;5.65;;;4.43;;
64903;SDS011;51401;48.882;12.598;2022-09-09T05:13:38;10.00;;;5.30;;
64903;SDS011;51401;48.882;12.598;2022-09-09T05:16:03;7.30;;;4.47;;
64903;SDS011;51401;48.882;12.598;2022-09-09T05:18:28;6.43;;;4.78;;
64903;SDS011;51401;48.882;12.598;2022-09-09T05:20:58;6.50;;;5.00;;
64903;SDS011;51401;48.882;12.598;2022-09-09T05:25:56;6.07;;;4.67;;
64903;SDS011;51401;48.882;12.598;2022-09-09T05:28:22;6.07;;;5.00;;
64903;SDS011;51401;48.882;12.598;2022-09-09T05:30:59;6.78;;;4.70;;
64903;SDS011;51401;48.882;12.598;2022-09-09T05:33:29;9.90;;;5.35;;
64903;SDS011;51401;48.882;12.598;2022-09-09T05:35:55;5.43;;;4.43;;
64903;SDS011;51401;48.882;12.598;2022-09-09T05:38:30;6.05;;;4.80;;
64903;SDS011;51401;48.882;12.598;2022-09-09T05:40:57;7.78;;;5.03;;
64903;SDS011;51401;48.882;12.598;2022-09-09T05:43:23;6.15;;;4.80;;
64903;SDS011;51401;48.882;12.598;2022-09-09T05:45:58;6.50;;;5.32;;
64903;SDS011;51401;48.882;12.598;2022-09-09T05:48:29;6.78;;;4.72;;
64903;SDS011;51401;48.882;12.598;2022-09-09T05:50:55;6.70;;;4.72;;
64903;SDS011;51401;48.882;12.598;2022-09-09T05:53:21;5.87;;;4.60;;
64903;SDS011;51401;48.882;12.598;2022-09-09T05:55:46;6.53;;;4.25;;
64903;SDS011;51401;48.882;12.598;2022-09-09T05:58:12;7.53;;;5.63;;
64903;SDS011;51401;48.882;12.598;2022-09-09T06:00:39;7.80;;;5.57;;
64903;SDS011;51401;48.882;12.598;2022-09-09T06:03:04;7.35;;;5.40;;
64903;SDS011;51401;48.882;12.598;2022-09-09T06:05:30;8.32;;;5.85;;
64903;SDS011;51401;48.882;12.598;2022-09-09T06:07:55;6.43;;;5.27;;
64903;SDS011;51401;48.882;12.598;2022-09-09T06:10:21;7.95;;;5.57;;
64903;SDS011;51401;48.882;12.598;2022-09-09T06:12:46;6.20;;;4.72;;
64903;SDS011;51401;48.882;12.598;2022-09-09T06:15:12;7.57;;;5.30;;
64903;SDS011;51401;48.882;12.598;2022-09-09T06:17:37;6.80;;;5.47;;
64903;SDS011;51401;48.882;12.598;2022-09-09T06:20:04;7.82;;;5.45;;
64903;SDS011;51401;48.882;12.598;2022-09-09T06:22:29;6.63;;;5.32;;
64903;SDS011;51401;48.882;12.598;2022-09-09T06:24:55;6.88;;;5.35;;
64903;SDS011;51401;48.882;12.598;2022-09-09T06:27:20;6.05;;;4.57;;
64903;SDS011;51401;48.882;12.598;2022-09-09T06:29:46;5.50;;;4.93;;
64903;SDS011;51401;48.882;12.598;2022-09-09T06:32:12;6.53;;;4.63;;
64903;SDS011;51401;48.882;12.598;2022-09-09T06:34:38;5.22;;;4.28;;
64903;SDS011;51401;48.882;12.598;2022-09-09T06:37:03;5.13;;;4.28;;
64903;SDS011;51401;48.882;12.598;2022-09-09T06:39:31;5.88;;;4.45;;
64903;SDS011;51401;48.882;12.598;2022-09-09T06:41:56;5.57;;;3.87;;
64903;SDS011;51401;48.882;12.598;2022-09-09T06:44:23;6.03;;;4.22;;
64903;SDS011;51401;48.882;12.598;2022-09-09T06:46:51;4.60;;;3.60;;
64903;SDS011;51401;48.882;12.598;2022-09-09T06:49:17;4.57;;;3.83;;
64903;SDS011;51401;48.882;12.598;2022-09-09T06:51:42;4.97;;;3.53;;
64903;SDS011;51401;48.882;12.598;2022-09-09T06:54:08;3.92;;;3.30;;
64903;SDS011;51401;48.882;12.598;2022-09-09T06:56:35;6.38;;;3.90;;
64903;SDS011;51401;48.882;12.598;2022-09-09T06:59:03;4.63;;;3.53;;
64903;SDS011;51401;48.882;12.598;2022-09-09T07:01:35;4.90;;;3.95;;
64903;SDS011;51401;48.882;12.598;2022-09-09T07:04:02;5.70;;;4.13;;
64903;SDS011;51401;48.882;12.598;2022-09-09T07:06:30;4.35;;;3.50;;
64903;SDS011;51401;48.882;12.598;2022-09-09T07:08:58;4.53;;;3.53;;
64903;SDS011;51401;48.882;12.598;2022-09-09T07:11:29;4.60;;;3.97;;
64903;SDS011;51401;48.882;12.598;2022-09-09T07:13:59;5.57;;;4.00;;
64903;SDS011;51401;48.882;12.598;2022-09-09T07:16:25;5.70;;;3.83;;
64903;SDS011;51401;48.882;12.598;2022-09-09T07:18:52;5.18;;;4.50;;
64903;SDS011;51401;48.882;12.598;2022-09-09T07:21:22;4.63;;;3.70;;
64903;SDS011;51401;48.882;12.598;2022-09-09T07:23:49;5.45;;;4.07;;
64903;SDS011;51401;48.882;12.598;2022-09-09T07:26:17;4.88;;;4.10;;
64903;SDS011;51401;48.882;12.598;2022-09-09T07:28:47;5.03;;;3.75;;
64903;SDS011;51401;48.882;12.598;2022-09-09T07:31:23;6.25;;;4.50;;
64903;SDS011;51401;48.882;12.598;2022-09-09T07:33:56;6.47;;;4.45;;
64903;SDS011;51401;48.882;12.598;2022-09-09T07:36:26;5.82;;;4.03;;
64903;SDS011;51401;48.882;12.598;2022-09-09T07:38:53;5.32;;;4.03;;
64903;SDS011;51401;48.882;12.598;2022-09-09T07:41:24;7.00;;;4.60;;
64903;SDS011;51401;48.882;12.598;2022-09-09T07:43:52;5.40;;;3.80;;
64903;SDS011;51401;48.882;12.598;2022-09-09T07:46:21;5.82;;;4.43;;
64903;SDS011;51401;48.882;12.598;2022-09-09T07:48:49;4.47;;;3.20;;
64903;SDS011;51401;48.882;12.598;2022-09-09T07:51:17;5.22;;;4.13;;
64903;SDS011;51401;48.882;12.598;2022-09-09T07:53:48;5.22;;;3.70;;
64903;SDS011;51401;48.882;12.598;2022-09-09T07:56:16;5.25;;;3.53;;
64903;SDS011;51401;48.882;12.598;2022-09-09T07:58:44;5.97;;;3.58;;
64903;SDS011;51401;48.882;12.598;2022-09-09T08:01:21;5.28;;;3.95;;
64903;SDS011;51401;48.882;12.598;2022-09-09T08:03:53;4.95;;;4.30;;
64903;SDS011;51401;48.882;12.598;2022-09-09T08:06:42;4.57;;;3.67;;
64903;SDS011;51401;48.882;12.598;2022-09-09T08:09:12;6.82;;;3.90;;
64903;SDS011;51401;48.882;12.598;2022-09-09T08:11:38;4.20;;;3.50;;
64903;SDS011;51401;48.882;12.598;2022-09-09T08:14:05;5.80;;;3.95;;
64903;SDS011;51401;48.882;12.598;2022-09-09T08:16:33;6.97;;;4.05;;
64903;SDS011;51401;48.882;12.598;2022-09-09T08:19:02;5.05;;;3.83;;
64903;SDS011;51401;48.882;12.598;2022-09-09T08:21:28;6.03;;;3.47;;
64903;SDS011;51401;48.882;12.598;2022-09-09T08:23:55;5.50;;;4.05;;
64903;SDS011;51401;48.882;12.598;2022-09-09T08:26:23;5.47;;;3.85;;
64903;SDS011;51401;48.882;12.598;2022-09-09T08:28:50;5.55;;;4.20;;
64903;SDS011;51401;48.882;12.598;2022-09-09T08:31:18;5.28;;;3.88;;
64903;SDS011;51401;48.882;12.598;2022-09-09T08:33:45;4.75;;;3.88;;
64903;SDS011;51401;48.882;12.598;2022-09-09T08:36:12;4.63;;;3.80;;
64903;SDS011;51401;48.882;12.598;2022-09-09T08:38:40;5.43;;;4.10;;
64903;SDS011;51401;48.882;12.598;2022-09-09T08:41:41;5.10;;;4.22;;
64903;SDS011;51401;48.882;12.598;2022-09-09T08:44:02;4.55;;;3.88;;
64903;SDS011;51401;48.882;12.598;2022-09-09T08:46:42;5.10;;;4.03;;
64903;SDS011;51401;48.882;12.598;2022-09-09T08:49:22;5.28;;;3.85;;
64903;SDS011;51401;48.882;12.598;2022-09-09T08:51:58;4.78;;;3.85;;
64903;SDS011;51401;48.882;12.598;2022-09-09T08:54:33;5.45;;;3.97;;
64903;SDS011;51401;48.882;12.598;2022-09-09T08:57:01;4.85;;;3.75;;
64903;SDS011;51401;48.882;12.598;2022-09-09T08:59:27;6.50;;;4.65;;
64903;SDS011;51401;48.882;12.598;2022-09-09T09:04:43;6.07;;;4.43;;
64903;SDS011;51401;48.882;12.598;2022-09-09T09:12:32;7.25;;;5.30;;
64903;SDS011;51401;48.882;12.598;2022-09-09T09:15:05;5.97;;;4.35;;
64903;SDS011;51401;48.882;12.598;2022-09-09T09:17:41;6.00;;;4.93;;
64903;SDS011;51401;48.882;12.598;2022-09-09T09:20:12;6.57;;;5.18;;
64903;SDS011;51401;48.882;12.598;2022-09-09T09:22:43;6.80;;;4.90;;
64903;SDS011;51401;48.882;12.598;2022-09-09T09:30:34;6.85;;;4.95;;
64903;SDS011;51401;48.882;12.598;2022-09-09T09:35:45;7.68;;;5.32;;
64903;SDS011;51401;48.882;12.598;2022-09-09T09:38:17;6.35;;;5.20;;
64903;SDS011;51401;48.882;12.598;2022-09-09T09:40:48;7.10;;;5.18;;
64903;SDS011;51401;48.882;12.598;2022-09-09T09:43:20;6.13;;;5.07;;
64903;SDS011;51401;48.882;12.598;2022-09-09T09:45:49;6.53;;;5.07;;
64903;SDS011;51401;48.882;12.598;2022-09-09T09:48:14;7.50;;;5.65;;
64903;SDS011;51401;48.882;12.598;2022-09-09T09:50:46;7.00;;;5.35;;
64903;SDS011;51401;48.882;12.598;2022-09-09T09:53:18;6.38;;;4.85;;
64903;SDS011;51401;48.882;12.598;2022-09-09T09:55:50;6.10;;;4.50;;
64903;SDS011;51401;48.882;12.598;2022-09-09T09:58:22;5.72;;;4.53;;
64903;SDS011;51401;48.882;12.598;2022-09-09T10:00:49;7.40;;;5.30;;
64903;SDS011;51401;48.882;12.598;2022-09-09T10:03:29;7.25;;;5.38;;
64903;SDS011;51401;48.882;12.598;2022-09-09T10:08:22;5.53;;;4.65;;
64903;SDS011;51401;48.882;12.598;2022-09-09T10:19:33;5.18;;;4.68;;
64903;SDS011;51401;48.882;12.598;2022-09-09T10:30:15;4.70;;;4.10;;
64903;SDS011;51401;48.882;12.598;2022-09-09T10:38:17;4.80;;;4.22;;
64903;SDS011;51401;48.882;12.598;2022-09-09T10:49:48;5.20;;;4.57;;
64903;SDS011;51401;48.882;12.598;2022-09-09T10:55:27;5.15;;;4.47;;
64903;SDS011;51401;48.882;12.598;2022-09-09T10:57:58;5.78;;;4.93;;
64903;SDS011;51401;48.882;12.598;2022-09-09T11:00:31;7.10;;;5.25;;
64903;SDS011;51401;48.882;12.598;2022-09-09T11:03:14;8.05;;;5.50;;
64903;SDS011;51401;48.882;12.598;2022-09-09T11:05:55;6.25;;;5.10;;
64903;SDS011;51401;48.882;12.598;2022-09-09T11:08:27;6.68;;;5.22;;
64903;SDS011;51401;48.882;12.598;2022-09-09T11:13:42;8.00;;;5.60;;
64903;SDS011;51401;48.882;12.598;2022-09-09T11:16:21;7.53;;;5.17;;
64903;SDS011;51401;48.882;12.598;2022-09-09T11:19:45;6.82;;;5.55;;
64903;SDS011;51401;48.882;12.598;2022-09-09T11:21:49;7.20;;;5.03;;
64903;SDS011;51401;48.882;12.598;2022-09-09T11:27:56;6.28;;;5.25;;
64903;SDS011;51401;48.882;12.598;2022-09-09T11:32:42;6.53;;;4.20;;
64903;SDS011;51401;48.882;12.598;2022-09-09T11:35:21;5.78;;;4.93;;
64903;SDS011;51401;48.882;12.598;2022-09-09T11:41:07;6.40;;;4.65;;
64903;SDS011;51401;48.882;12.598;2022-09-09T11:43:52;7.07;;;4.20;;
64903;SDS011;51401;48.882;12.598;2022-09-09T11:46:22;5.13;;;4.05;;
64903;SDS011;51401;48.882;12.598;2022-09-09T11:49:01;5.60;;;4.20;;
64903;SDS011;51401;48.882;12.598;2022-09-09T11:51:28;4.60;;;3.90;;
64903;SDS011;51401;48.882;12.598;2022-09-09T11:53:56;4.45;;;3.80;;
64903;SDS011;51401;48.882;12.598;2022-09-09T12:04:06;6.88;;;3.80;;
64903;SDS011;51401;48.882;12.598;2022-09-09T12:06:45;4.30;;;3.80;;
64903;SDS011;51401;48.882;12.598;2022-09-09T12:14:43;3.67;;;2.90;;
64903;SDS011;51401;48.882;12.598;2022-09-09T12:17:23;3.50;;;2.97;;
64903;SDS011;51401;48.882;12.598;2022-09-09T12:31:26;2.25;;;1.70;;
64903;SDS011;51401;48.882;12.598;2022-09-09T12:34:02;4.95;;;2.20;;
64903;SDS011;51401;48.882;12.598;2022-09-09T12:36:34;3.40;;;1.98;;
64903;SDS011;51401;48.882;12.598;2022-09-09T12:39:09;2.17;;;1.50;;
64903;SDS011;51401;48.882;12.598;2022-09-09T12:41:41;2.97;;;1.52;;
64903;SDS011;51401;48.882;12.598;2022-09-09T12:44:17;2.22;;;1.90;;
64903;SDS011;51401;48.882;12.598;2022-09-09T12:46:43;2.63;;;1.97;;
64903;SDS011;51401;48.882;12.598;2022-09-09T12:54:44;2.05;;;1.50;;
64903;SDS011;51401;48.882;12.598;2022-09-09T12:57:11;1.77;;;1.42;;
64903;SDS011;51401;48.882;12.598;2022-09-09T12:59:39;1.65;;;1.20;;
64903;SDS011;51401;48.882;12.598;2022-09-09T13:02:11;2.10;;;1.20;;
64903;SDS011;51401;48.882;12.598;2022-09-09T13:04:43;2.17;;;0.90;;
64903;SDS011;51401;48.882;12.598;2022-09-09T13:07:09;4.00;;;1.50;;
64903;SDS011;51401;48.882;12.598;2022-09-09T13:09:34;2.38;;;1.27;;
64903;SDS011;51401;48.882;12.598;2022-09-09T13:12:00;2.72;;;1.30;;
64903;SDS011;51401;48.882;12.598;2022-09-09T13:14:31;1.60;;;0.95;;
64903;SDS011;51401;48.882;12.598;2022-09-09T13:17:05;2.42;;;1.10;;
64903;SDS011;51401;48.882;12.598;2022-09-09T13:19:38;2.08;;;1.27;;
64903;SDS011;51401;48.882;12.598;2022-09-09T13:22:14;1.50;;;1.00;;
64903;SDS011;51401;48.882;12.598;2022-09-09T13:24:44;2.13;;;1.10;;
64903;SDS011;51401;48.882;12.598;2022-09-09T13:29:56;1.70;;;1.20;;
64903;SDS011;51401;48.882;12.598;2022-09-09T13:32:22;2.72;;;1.35;;
64903;SDS011;51401;48.882;12.598;2022-09-09T13:34:52;2.03;;;1.15;;
64903;SDS011;51401;48.882;12.598;2022-09-09T13:37:31;1.58;;;1.20;;
64903;SDS011;51401;48.882;12.598;2022-09-09T13:40:02;1.27;;;1.13;;
64903;SDS011;51401;48.882;12.598;2022-09-09T13:42:31;3.35;;;1.17;;
64903;SDS011;51401;48.882;12.598;2022-09-09T13:45:00;3.05;;;1.30;;
64903;SDS011;51401;48.882;12.598;2022-09-09T13:47:30;2.13;;;1.23;;
64903;SDS011;51401;48.882;12.598;2022-09-09T13:50:09;2.40;;;1.13;;
64903;SDS011;51401;48.882;12.598;2022-09-09T13:52:42;2.05;;;1.08;;
64903;SDS011;51401;48.882;12.598;2022-09-09T13:55:08;2.13;;;1.00;;
64903;SDS011;51401;48.882;12.598;2022-09-09T13:57:34;1.20;;;0.65;;
64903;SDS011;51401;48.882;12.598;2022-09-09T14:00:00;0.90;;;0.80;;
64903;SDS011;51401;48.882;12.598;2022-09-09T14:02:26;1.70;;;0.88;;
64903;SDS011;51401;48.882;12.598;2022-09-09T14:04:51;1.30;;;0.63;;
64903;SDS011;51401;48.882;12.598;2022-09-09T14:07:19;1.90;;;0.80;;
64903;SDS011;51401;48.882;12.598;2022-09-09T14:09:45;1.63;;;0.90;;
64903;SDS011;51401;48.882;12.598;2022-09-09T14:12:14;1.60;;;0.70;;
64903;SDS011;51401;48.882;12.598;2022-09-09T14:14:41;1.65;;;0.90;;
64903;SDS011;51401;48.882;12.598;2022-09-09T14:17:09;1.08;;;0.70;;
64903;SDS011;51401;48.882;12.598;2022-09-09T14:19:35;1.40;;;0.80;;
64903;SDS011;51401;48.882;12.598;2022-09-09T14:22:02;1.65;;;0.82;;
64903;SDS011;51401;48.882;12.598;2022-09-09T14:24:27;1.60;;;0.90;;
64903;SDS011;51401;48.882;12.598;2022-09-09T14:26:53;2.05;;;0.95;;
64903;SDS011;51401;48.882;12.598;2022-09-09T14:29:19;1.15;;;0.85;;
64903;SDS011;51401;48.882;12.598;2022-09-09T14:31:44;1.80;;;0.80;;
64903;SDS011;51401;48.882;12.598;2022-09-09T14:34:10;2.15;;;1.25;;
64903;SDS011;51401;48.882;12.598;2022-09-09T14:36:35;1.40;;;1.10;;
64903;SDS011;51401;48.882;12.598;2022-09-09T14:39:01;1.52;;;1.10;;
64903;SDS011;51401;48.882;12.598;2022-09-09T14:41:27;1.50;;;1.02;;
64903;SDS011;51401;48.882;12.598;2022-09-09T14:43:54;1.85;;;0.95;;
64903;SDS011;51401;48.882;12.598;2022-09-09T14:46:19;1.60;;;1.20;;
64903;SDS011;51401;48.882;12.598;2022-09-09T14:48:45;2.42;;;1.50;;
64903;SDS011;51401;48.882;12.598;2022-09-09T14:51:22;2.35;;;1.23;;
64903;SDS011;51401;48.882;12.598;2022-09-09T14:53:52;1.30;;;1.20;;
64903;SDS011;51401;48.882;12.598;2022-09-09T14:56:20;1.50;;;1.20;;
64903;SDS011;51401;48.882;12.598;2022-09-09T14:58:47;2.30;;;1.50;;
64903;SDS011;51401;48.882;12.598;2022-09-09T15:01:15;2.00;;;1.20;;
64903;SDS011;51401;48.882;12.598;2022-09-09T15:03:42;2.45;;;1.42;;
64903;SDS011;51401;48.882;12.598;2022-09-09T15:06:13;1.30;;;1.20;;
64903;SDS011;51401;48.882;12.598;2022-09-09T15:08:40;2.05;;;1.50;;
64903;SDS011;51401;48.882;12.598;2022-09-09T15:11:07;1.00;;;0.90;;
64903;SDS011;51401;48.882;12.598;2022-09-09T15:13:34;2.25;;;1.40;;
64903;SDS011;51401;48.882;12.598;2022-09-09T15:16:21;1.48;;;1.10;;
64903;SDS011;51401;48.882;12.598;2022-09-09T15:18:51;1.58;;;1.20;;
64903;SDS011;51401;48.882;12.598;2022-09-09T15:21:20;1.35;;;1.17;;
64903;SDS011;51401;48.882;12.598;2022-09-09T15:23:47;1.77;;;1.30;;
64903;SDS011;51401;48.882;12.598;2022-09-09T15:26:13;2.45;;;1.38;;
64903;SDS011;51401;48.882;12.598;2022-09-09T15:28:40;2.08;;;1.30;;
64903;SDS011;51401;48.882;12.598;2022-09-09T15:31:07;3.50;;;1.20;;
64903;SDS011;51401;48.882;12.598;2022-09-09T15:33:50;3.15;;;1.35;;
64903;SDS011;51401;48.882;12.598;2022-09-09T15:36:26;2.30;;;1.40;;
64903;SDS011;51401;48.882;12.598;2022-09-09T15:38:53;2.40;;;1.20;;
64903;SDS011;51401;48.882;12.598;2022-09-09T15:41:19;3.58;;;1.70;;
64903;SDS011;51401;48.882;12.598;2022-09-09T15:43:47;2.10;;;1.20;;
64903;SDS011;51401;48.882;12.598;2022-09-09T15:48:43;1.58;;;1.20;;
64903;SDS011;51401;48.882;12.598;2022-09-09T15:51:09;2.42;;;1.05;;
64903;SDS011;51401;48.882;12.598;2022-09-09T15:53:35;1.92;;;1.02;;
64903;SDS011;51401;48.882;12.598;2022-09-09T15:56:07;1.40;;;1.23;;
64903;SDS011;51401;48.882;12.598;2022-09-09T15:58:33;1.92;;;1.10;;
64903;SDS011;51401;48.882;12.598;2022-09-09T16:01:01;1.20;;;1.10;;
64903;SDS011;51401;48.882;12.598;2022-09-09T16:03:36;1.80;;;1.00;;
64903;SDS011;51401;48.882;12.598;2022-09-09T16:06:04;1.55;;;1.13;;
64903;SDS011;51401;48.882;12.598;2022-09-09T16:08:36;2.08;;;1.00;;
64903;SDS011;51401;48.882;12.598;2022-09-09T16:11:04;1.45;;;1.13;;
64903;SDS011;51401;48.882;12.598;2022-09-09T16:13:34;2.05;;;1.10;;
64903;SDS011;51401;48.882;12.598;2022-09-09T16:16:01;1.20;;;1.10;;
64903;SDS011;51401;48.882;12.598;2022-09-09T16:18:32;2.80;;;1.77;;
64903;SDS011;51401;48.882;12.598;2022-09-09T16:21:08;1.10;;;1.00;;
64903;SDS011;51401;48.882;12.598;2022-09-09T16:23:56;1.00;;;0.80;;
64903;SDS011;51401;48.882;12.598;2022-09-09T16:26:24;2.53;;;1.02;;
64903;SDS011;51401;48.882;12.598;2022-09-09T16:28:50;1.88;;;1.00;;
64903;SDS011;51401;48.882;12.598;2022-09-09T16:31:16;1.35;;;1.00;;
64903;SDS011;51401;48.882;12.598;2022-09-09T16:33:44;1.60;;;1.00;;
64903;SDS011;51401;48.882;12.598;2022-09-09T16:36:13;3.53;;;1.17;;
64903;SDS011;51401;48.882;12.598;2022-09-09T16:38:40;2.05;;;1.30;;
64903;SDS011;51401;48.882;12.598;2022-09-09T16:41:06;1.77;;;1.02;;
64903;SDS011;51401;48.882;12.598;2022-09-09T16:43:33;1.70;;;1.05;;
64903;SDS011;51401;48.882;12.598;2022-09-09T16:45:59;2.15;;;1.42;;
64903;SDS011;51401;48.882;12.598;2022-09-09T16:48:30;3.03;;;1.40;;
64903;SDS011;51401;48.882;12.598;2022-09-09T16:51:05;6.53;;;1.05;;
64903;SDS011;51401;48.882;12.598;2022-09-09T16:53:32;1.80;;;1.20;;
64903;SDS011;51401;48.882;12.598;2022-09-09T16:56:04;1.50;;;1.08;;
64903;SDS011;51401;48.882;12.598;2022-09-09T16:58:31;1.58;;;1.13;;
64903;SDS011;51401;48.882;12.598;2022-09-09T17:01:00;2.70;;;1.15;;
64903;SDS011;51401;48.882;12.598;2022-09-09T17:03:27;2.13;;;0.90;;
64903;SDS011;51401;48.882;12.598;2022-09-09T17:05:52;1.73;;;1.13;;
64903;SDS011;51401;48.882;12.598;2022-09-09T17:08:18;2.72;;;1.00;;
64903;SDS011;51401;48.882;12.598;2022-09-09T17:10:43;1.57;;;1.10;;
64903;SDS011;51401;48.882;12.598;2022-09-09T17:13:08;0.88;;;0.80;;
64903;SDS011;51401;48.882;12.598;2022-09-09T17:15:38;1.92;;;1.20;;
64903;SDS011;51401;48.882;12.598;2022-09-09T17:18:06;2.95;;;1.13;;
64903;SDS011;51401;48.882;12.598;2022-09-09T17:20:34;1.10;;;1.00;;
64903;SDS011;51401;48.882;12.598;2022-09-09T17:23:00;1.20;;;1.00;;
64903;SDS011;51401;48.882;12.598;2022-09-09T17:25:25;1.27;;;0.90;;
64903;SDS011;51401;48.882;12.598;2022-09-09T17:27:51;3.00;;;1.10;;